Blue Star 1 — SWET — position and weather

sailwx.info

Track history (hours):
 
Tides and Currents Weather Stations Pressure Air Temp Water Temp Dewpoint Dewpoint Depression Visibility Wind Speed Wind Dir Waves Ship Positions

Blue Star 1

Last reported at 2014-Aug-22 04:32 UTC. Time now 2014-Aug-22 05:59 UTC.
Position N 36°39' E 027°25'.

Length 176 m; draft 6.5 m.

Type: Ship (hazmat cat A). MMSI: 239710000.

Date/timePositionNaut miles runAvg speedWind from/ knotsBaromVisibWave heightAir tempDewpointWater temp
2014-Aug-22 04:32N 36°39' E 027°25'20 9.6
2014-Aug-22 02:26N 36°55' E 027°10'2022.1
2014-Aug-22 01:33N 36°50' E 026°46'2521.9
2014-Aug-22 00:25N 36°44' E 026°16'1922.2
2014-Aug-21 23:33N 36°38' E 025°53'2222.1
2014-Aug-21 22:33N 36°32' E 025°27'9 8.2
2014-Aug-21 21:31N 36°23' E 025°26'1515.5
2014-Aug-21 20:33N 36°28' E 025°08'2121.2
2014-Aug-21 19:33N 36°41' E 024°47'2121.4
2014-Aug-21 18:33N 36°57' E 024°30'2221.6
2014-Aug-21 17:33N 37°13' E 024°11'2221.6
2014-Aug-21 16:33N 37°29' E 023°53'2221.7
2014-Aug-21 15:33N 37°47' E 023°39'9 8.9
2014-Aug-21 14:32N 37°56' E 023°38'0 0.0
2014-Aug-21 13:32N 37°56' E 023°38'0 0.0
2014-Aug-21 12:31N 37°56' E 023°38'0 0.0
2014-Aug-21 11:31N 37°56' E 023°38'0 0.0
2014-Aug-21 10:31N 37°56' E 023°38'0 0.0
2014-Aug-21 09:31N 37°56' E 023°38'0 0.0
2014-Aug-21 08:31N 37°56' E 023°38'0 0.0
2014-Aug-21 07:29N 37°56' E 023°38'0 0.0
2014-Aug-21 06:33N 37°56' E 023°38'0 0.0
2014-Aug-21 05:33N 37°56' E 023°38'1 1.1
2014-Aug-21 04:33N 37°56' E 023°37'2019.4
2014-Aug-21 03:32N 37°39' E 023°49'2922.1
2014-Aug-21 02:13N 37°16' E 024°12'2022.2
2014-Aug-21 01:20N 37°01' E 024°28'1722.2
2014-Aug-21 00:33N 36°48' E 024°42'2221.4
2014-Aug-20 23:33N 36°32' E 024°60'2121.3
2014-Aug-20 22:33N 36°23' E 025°24'2 2.4
2014-Aug-20 21:33N 36°26' E 025°24'1717.2
2014-Aug-20 20:33N 36°35' E 025°41'2222.0
2014-Aug-20 19:33N 36°41' E 026°08'2222.1
2014-Aug-20 18:33N 36°48' E 026°34'2222.2
2014-Aug-20 17:33N 36°53' E 027°01'20 8.8
2014-Aug-20 15:16N 36°41' E 027°21'1621.4
2014-Aug-20 14:32N 36°34' E 027°39'48 3.7
2014-Aug-20 01:23N 36°48' E 026°41'1921.5
2014-Aug-20 00:31N 36°42' E 026°19'2121.9
2014-Aug-19 23:33N 36°37' E 025°54'2221.8
2014-Aug-19 22:33N 36°32' E 025°27'8 7.9
2014-Aug-19 21:29N 36°23' E 025°26'1616.5
2014-Aug-19 20:32N 36°28' E 025°07'2120.9
2014-Aug-19 19:33N 36°41' E 024°47'2221.2
2014-Aug-19 18:32N 36°58' E 024°30'5021.5
2014-Aug-19 16:14N 37°34' E 023°47'1521.8
2014-Aug-19 15:33N 37°47' E 023°38'10 1.6
2014-Aug-19 09:32N 37°56' E 023°38'0 0.0
2014-Aug-19 07:32N 37°56' E 023°38'0 0.0
2014-Aug-19 06:32N 37°56' E 023°38'0 0.0
2014-Aug-19 05:33N 37°56' E 023°38'2 2.3
2014-Aug-19 04:33N 37°54' E 023°37'2220.4
2014-Aug-19 03:30N 37°37' E 023°53'2921.9
2014-Aug-19 02:12N 37°18' E 024°20'1521.8
2014-Aug-19 01:31N 37°11' E 024°36'2121.8
2014-Aug-19 00:33N 36°56' E 024°55'2221.6
2014-Aug-18 23:33N 36°40' E 025°14'1918.7
2014-Aug-18 22:31N 36°23' E 025°26'7 7.2
2014-Aug-18 21:33N 36°29' E 025°21'2222.0
2014-Aug-18 20:33N 36°37' E 025°47'2222.3
2014-Aug-18 19:33N 36°43' E 026°14'83 3.3
2014-Aug-17 18:34N 36°56' E 024°32'5121.8
2014-Aug-17 16:12N 37°34' E 023°48'1422.3
2014-Aug-17 15:33N 37°47' E 023°39'1010.0
2014-Aug-17 14:33N 37°56' E 023°38'0 0.0
2014-Aug-17 13:33N 37°56' E 023°38'0 0.0
2014-Aug-17 12:33N 37°56' E 023°38'0 0.0
2014-Aug-17 11:33N 37°56' E 023°38'0 0.0
2014-Aug-17 10:33N 37°56' E 023°38'0 0.0
2014-Aug-17 09:33N 37°56' E 023°38'0 0.0
2014-Aug-17 08:33N 37°56' E 023°38'0 0.0
2014-Aug-17 07:33N 37°56' E 023°38'0 0.0
2014-Aug-17 06:29N 37°56' E 023°38'0 0.0
2014-Aug-17 05:32N 37°56' E 023°38'0 0.0
2014-Aug-17 04:32N 37°56' E 023°38'0 0.0
2014-Aug-17 03:32N 37°56' E 023°38'8 8.6
2014-Aug-17 02:33N 37°49' E 023°41'1817.8
2014-Aug-17 01:32N 37°34' E 023°55'1818.2
2014-Aug-17 00:33N 37°23' E 024°13'1818.4
2014-Aug-16 23:33N 37°14' E 024°33'2019.5
2014-Aug-16 22:33N 37°09' E 024°57'10 9.8
2014-Aug-16 21:30N 37°05' E 025°09'1415.3
2014-Aug-16 20:34N 36°53' E 025°01'2525.1
2014-Aug-16 19:34N 36°32' E 025°19'0 0.1
2014-Aug-16 17:23N 36°32' E 025°19'1619.2
2014-Aug-16 16:33N 36°46' E 025°09'1919.3
2014-Aug-16 15:34N 36°59' E 024°52'2818.7
2014-Aug-16 14:04N 37°16' E 024°24'1519.3
2014-Aug-16 13:17N 37°25' E 024°08'1419.5
2014-Aug-16 12:33N 37°33' E 023°54'1919.0
2014-Aug-16 11:34N 37°47' E 023°38'9 9.0
2014-Aug-16 10:33N 37°56' E 023°38'0 0.0
2014-Aug-16 09:33N 37°56' E 023°38'0 0.0
2014-Aug-16 08:33N 37°56' E 023°38'0 0.0
2014-Aug-16 07:33N 37°56' E 023°38'0 0.0
2014-Aug-16 06:33N 37°56' E 023°38'0 0.0
2014-Aug-16 05:30N 37°56' E 023°38'1 1.1
2014-Aug-16 04:33N 37°56' E 023°36'1717.2
2014-Aug-16 03:33N 37°41' E 023°46'2121.5
2014-Aug-16 02:33N 37°26' E 024°07'2221.7
2014-Aug-16 01:34N 37°14' E 024°29'2222.3
2014-Aug-16 00:33N 36°60' E 024°50'2322.2
2014-Aug-15 23:32N 36°44' E 025°11'2121.9
2014-Aug-15 22:33N 36°25' E 025°24'1 1.5
2014-Aug-15 21:34N 36°26' E 025°23'1918.5
2014-Aug-15 20:34N 36°35' E 025°43'2221.6
2014-Aug-15 19:31N 36°42' E 026°10'2122.2
2014-Aug-15 18:33N 36°48' E 026°35'2221.9
2014-Aug-15 17:32N 36°53' E 027°03'17 8.2
2014-Aug-15 15:27N 36°45' E 027°21'1719.0
2014-Aug-15 14:33N 36°35' E 027°38'14 1.5
2014-Aug-15 05:28N 36°30' E 027°54'2022.0
2014-Aug-15 04:33N 36°37' E 027°31'1918.3
2014-Aug-15 03:29N 36°54' E 027°19'1 0.8
2014-Aug-15 02:33N 36°54' E 027°18'2221.1
2014-Aug-15 01:30N 36°50' E 026°51'2624.5
2014-Aug-15 00:27N 36°44' E 026°20'2224.3
2014-Aug-14 23:34N 36°38' E 025°54'2424.3
2014-Aug-14 22:33N 36°31' E 025°25'7 6.8
2014-Aug-14 21:29N 36°23' E 025°26'1617.2
2014-Aug-14 20:33N 36°29' E 025°07'2121.2
2014-Aug-14 19:33N 36°42' E 024°46'2221.9
2014-Aug-14 18:34N 36°58' E 024°29'2321.7
2014-Aug-14 17:31N 37°15' E 024°09'2121.4
2014-Aug-14 16:33N 37°30' E 023°52'2221.6
2014-Aug-14 15:32N 37°49' E 023°38'8 7.3
2014-Aug-14 14:31N 37°56' E 023°38'0 0.0
2014-Aug-14 13:31N 37°56' E 023°38'0 0.0
2014-Aug-14 12:31N 37°56' E 023°38'0 0.0
2014-Aug-14 11:31N 37°56' E 023°38'0 0.0
2014-Aug-14 10:33N 37°56' E 023°38'0 0.0
2014-Aug-14 09:33N 37°56' E 023°38'0 0.0
2014-Aug-14 08:33N 37°56' E 023°38'0 0.0
2014-Aug-14 07:33N 37°56' E 023°38'0 0.0
2014-Aug-14 06:33N 37°56' E 023°38'0 0.0
2014-Aug-14 05:33N 37°56' E 023°38'1 1.0
2014-Aug-14 04:34N 37°56' E 023°36'1918.7
2014-Aug-14 03:33N 37°39' E 023°47'2222.1
2014-Aug-14 02:34N 37°25' E 024°08'2221.5
2014-Aug-14 01:33N 37°14' E 024°31'2222.2
2014-Aug-14 00:33N 36°58' E 024°52'2222.1
2014-Aug-13 23:34N 36°44' E 025°12'2221.7
2014-Aug-13 22:33N 36°24' E 025°25'3 3.1
2014-Aug-13 21:33N 36°27' E 025°22'1919.3
2014-Aug-13 20:33N 36°36' E 025°44'2222.3
2014-Aug-13 19:33N 36°42' E 026°10'2221.9
2014-Aug-13 18:33N 36°48' E 026°37'2222.0
2014-Aug-13 17:33N 36°54' E 027°03'21 9.1
2014-Aug-13 15:13N 36°40' E 027°23'1521.4
2014-Aug-13 14:31N 36°34' E 027°40'9 1.0
2014-Aug-13 05:28N 36°31' E 027°51'2325.2
2014-Aug-13 04:34N 36°39' E 027°25'19 9.3
2014-Aug-13 02:32N 36°55' E 027°12'4924.4
2014-Aug-13 00:32N 36°43' E 026°13'2424.1
2014-Aug-12 23:34N 36°36' E 025°45'2020.2
2014-Aug-12 22:33N 36°26' E 025°23'3 3.5
2014-Aug-12 21:33N 36°23' E 025°25'2120.7
2014-Aug-12 20:33N 36°32' E 025°01'2121.0
2014-Aug-12 19:33N 36°46' E 024°42'2221.5
2014-Aug-12 18:33N 37°02' E 024°24'4321.4
2014-Aug-12 16:32N 37°34' E 023°48'2121.1
2014-Aug-12 15:33N 37°53' E 023°38'3 3.3
2014-Aug-12 14:33N 37°56' E 023°38'0 0.0
2014-Aug-12 13:33N 37°56' E 023°38'0 0.0
2014-Aug-12 12:33N 37°56' E 023°38'0 0.0
2014-Aug-12 10:33N 37°56' E 023°38'0 0.0
2014-Aug-12 09:33N 37°56' E 023°38'0 0.0
2014-Aug-12 08:33N 37°56' E 023°38'0 0.0
2014-Aug-12 07:30N 37°56' E 023°38'0 0.0
2014-Aug-12 06:33N 37°56' E 023°38'0 0.0
2014-Aug-12 05:33N 37°56' E 023°38'1 1.4
2014-Aug-12 04:33N 37°55' E 023°37'  
Track history (hours):
 
Tides and Currents Weather Stations Pressure Air Temp Water Temp Dewpoint Dewpoint Depression Visibility Wind Speed Wind Dir Waves Ship Positions

Blue Star 1

Last reported at 2014-Aug-22 04:32 UTC. Time now 2014-Aug-22 05:59 UTC.
Position N 36°39' E 027°25'.

Length 176 m; draft 6.5 m.

Type: Ship (hazmat cat A). MMSI: 239710000.

Date/timePositionNaut miles runAvg speedWind from/ knotsBaromVisibWave heightAir tempDewpointWater temp
2014-Aug-22 04:32N 36°39' E 027°25'20 9.6
2014-Aug-22 02:26N 36°55' E 027°10'2022.1
2014-Aug-22 01:33N 36°50' E 026°46'2521.9
2014-Aug-22 00:25N 36°44' E 026°16'1922.2
2014-Aug-21 23:33N 36°38' E 025°53'2222.1
2014-Aug-21 22:33N 36°32' E 025°27'9 8.2
2014-Aug-21 21:31N 36°23' E 025°26'1515.5
2014-Aug-21 20:33N 36°28' E 025°08'2121.2
2014-Aug-21 19:33N 36°41' E 024°47'2121.4
2014-Aug-21 18:33N 36°57' E 024°30'2221.6
2014-Aug-21 17:33N 37°13' E 024°11'2221.6
2014-Aug-21 16:33N 37°29' E 023°53'2221.7
2014-Aug-21 15:33N 37°47' E 023°39'9 8.9
2014-Aug-21 14:32N 37°56' E 023°38'0 0.0
2014-Aug-21 13:32N 37°56' E 023°38'0 0.0
2014-Aug-21 12:31N 37°56' E 023°38'0 0.0
2014-Aug-21 11:31N 37°56' E 023°38'0 0.0
2014-Aug-21 10:31N 37°56' E 023°38'0 0.0
2014-Aug-21 09:31N 37°56' E 023°38'0 0.0
2014-Aug-21 08:31N 37°56' E 023°38'0 0.0
2014-Aug-21 07:29N 37°56' E 023°38'0 0.0
2014-Aug-21 06:33N 37°56' E 023°38'0 0.0
2014-Aug-21 05:33N 37°56' E 023°38'1 1.1
2014-Aug-21 04:33N 37°56' E 023°37'2019.4
2014-Aug-21 03:32N 37°39' E 023°49'2922.1
2014-Aug-21 02:13N 37°16' E 024°12'2022.2
2014-Aug-21 01:20N 37°01' E 024°28'1722.2
2014-Aug-21 00:33N 36°48' E 024°42'2221.4
2014-Aug-20 23:33N 36°32' E 024°60'2121.3
2014-Aug-20 22:33N 36°23' E 025°24'2 2.4
2014-Aug-20 21:33N 36°26' E 025°24'1717.2
2014-Aug-20 20:33N 36°35' E 025°41'2222.0
2014-Aug-20 19:33N 36°41' E 026°08'2222.1
2014-Aug-20 18:33N 36°48' E 026°34'2222.2
2014-Aug-20 17:33N 36°53' E 027°01'20 8.8
2014-Aug-20 15:16N 36°41' E 027°21'1621.4
2014-Aug-20 14:32N 36°34' E 027°39'48 3.7
2014-Aug-20 01:23N 36°48' E 026°41'1921.5
2014-Aug-20 00:31N 36°42' E 026°19'2121.9
2014-Aug-19 23:33N 36°37' E 025°54'2221.8
2014-Aug-19 22:33N 36°32' E 025°27'8 7.9
2014-Aug-19 21:29N 36°23' E 025°26'1616.5
2014-Aug-19 20:32N 36°28' E 025°07'2120.9
2014-Aug-19 19:33N 36°41' E 024°47'2221.2
2014-Aug-19 18:32N 36°58' E 024°30'5021.5
2014-Aug-19 16:14N 37°34' E 023°47'1521.8
2014-Aug-19 15:33N 37°47' E 023°38'10 1.6
2014-Aug-19 09:32N 37°56' E 023°38'0 0.0
2014-Aug-19 07:32N 37°56' E 023°38'0 0.0
2014-Aug-19 06:32N 37°56' E 023°38'0 0.0
2014-Aug-19 05:33N 37°56' E 023°38'2 2.3
2014-Aug-19 04:33N 37°54' E 023°37'2220.4
2014-Aug-19 03:30N 37°37' E 023°53'2921.9
2014-Aug-19 02:12N 37°18' E 024°20'1521.8
2014-Aug-19 01:31N 37°11' E 024°36'2121.8
2014-Aug-19 00:33N 36°56' E 024°55'2221.6
2014-Aug-18 23:33N 36°40' E 025°14'1918.7
2014-Aug-18 22:31N 36°23' E 025°26'7 7.2
2014-Aug-18 21:33N 36°29' E 025°21'2222.0
2014-Aug-18 20:33N 36°37' E 025°47'2222.3
2014-Aug-18 19:33N 36°43' E 026°14'83 3.3
2014-Aug-17 18:34N 36°56' E 024°32'5121.8
2014-Aug-17 16:12N 37°34' E 023°48'1422.3
2014-Aug-17 15:33N 37°47' E 023°39'1010.0
2014-Aug-17 14:33N 37°56' E 023°38'0 0.0
2014-Aug-17 13:33N 37°56' E 023°38'0 0.0
2014-Aug-17 12:33N 37°56' E 023°38'0 0.0
2014-Aug-17 11:33N 37°56' E 023°38'0 0.0
2014-Aug-17 10:33N 37°56' E 023°38'0 0.0
2014-Aug-17 09:33N 37°56' E 023°38'0 0.0
2014-Aug-17 08:33N 37°56' E 023°38'0 0.0
2014-Aug-17 07:33N 37°56' E 023°38'0 0.0
2014-Aug-17 06:29N 37°56' E 023°38'0 0.0
2014-Aug-17 05:32N 37°56' E 023°38'0 0.0
2014-Aug-17 04:32N 37°56' E 023°38'0 0.0
2014-Aug-17 03:32N 37°56' E 023°38'8 8.6
2014-Aug-17 02:33N 37°49' E 023°41'1817.8
2014-Aug-17 01:32N 37°34' E 023°55'1818.2
2014-Aug-17 00:33N 37°23' E 024°13'1818.4
2014-Aug-16 23:33N 37°14' E 024°33'2019.5
2014-Aug-16 22:33N 37°09' E 024°57'10 9.8
2014-Aug-16 21:30N 37°05' E 025°09'1415.3
2014-Aug-16 20:34N 36°53' E 025°01'2525.1
2014-Aug-16 19:34N 36°32' E 025°19'0 0.1
2014-Aug-16 17:23N 36°32' E 025°19'1619.2
2014-Aug-16 16:33N 36°46' E 025°09'1919.3
2014-Aug-16 15:34N 36°59' E 024°52'2818.7
2014-Aug-16 14:04N 37°16' E 024°24'1519.3
2014-Aug-16 13:17N 37°25' E 024°08'1419.5
2014-Aug-16 12:33N 37°33' E 023°54'1919.0
2014-Aug-16 11:34N 37°47' E 023°38'9 9.0
2014-Aug-16 10:33N 37°56' E 023°38'0 0.0
2014-Aug-16 09:33N 37°56' E 023°38'0 0.0
2014-Aug-16 08:33N 37°56' E 023°38'0 0.0
2014-Aug-16 07:33N 37°56' E 023°38'0 0.0
2014-Aug-16 06:33N 37°56' E 023°38'0 0.0
2014-Aug-16 05:30N 37°56' E 023°38'1 1.1
2014-Aug-16 04:33N 37°56' E 023°36'1717.2
2014-Aug-16 03:33N 37°41' E 023°46'2121.5
2014-Aug-16 02:33N 37°26' E 024°07'2221.7
2014-Aug-16 01:34N 37°14' E 024°29'2222.3
2014-Aug-16 00:33N 36°60' E 024°50'2322.2
2014-Aug-15 23:32N 36°44' E 025°11'2121.9
2014-Aug-15 22:33N 36°25' E 025°24'1 1.5
2014-Aug-15 21:34N 36°26' E 025°23'1918.5
2014-Aug-15 20:34N 36°35' E 025°43'2221.6
2014-Aug-15 19:31N 36°42' E 026°10'2122.2
2014-Aug-15 18:33N 36°48' E 026°35'2221.9
2014-Aug-15 17:32N 36°53' E 027°03'17 8.2
2014-Aug-15 15:27N 36°45' E 027°21'1719.0
2014-Aug-15 14:33N 36°35' E 027°38'14 1.5
2014-Aug-15 05:28N 36°30' E 027°54'2022.0
2014-Aug-15 04:33N 36°37' E 027°31'1918.3
2014-Aug-15 03:29N 36°54' E 027°19'1 0.8
2014-Aug-15 02:33N 36°54' E 027°18'2221.1
2014-Aug-15 01:30N 36°50' E 026°51'2624.5
2014-Aug-15 00:27N 36°44' E 026°20'2224.3
2014-Aug-14 23:34N 36°38' E 025°54'2424.3
2014-Aug-14 22:33N 36°31' E 025°25'7 6.8
2014-Aug-14 21:29N 36°23' E 025°26'1617.2
2014-Aug-14 20:33N 36°29' E 025°07'2121.2
2014-Aug-14 19:33N 36°42' E 024°46'2221.9
2014-Aug-14 18:34N 36°58' E 024°29'2321.7
2014-Aug-14 17:31N 37°15' E 024°09'2121.4
2014-Aug-14 16:33N 37°30' E 023°52'2221.6
2014-Aug-14 15:32N 37°49' E 023°38'8 7.3
2014-Aug-14 14:31N 37°56' E 023°38'0 0.0
2014-Aug-14 13:31N 37°56' E 023°38'0 0.0
2014-Aug-14 12:31N 37°56' E 023°38'0 0.0
2014-Aug-14 11:31N 37°56' E 023°38'0 0.0
2014-Aug-14 10:33N 37°56' E 023°38'0 0.0
2014-Aug-14 09:33N 37°56' E 023°38'0 0.0
2014-Aug-14 08:33N 37°56' E 023°38'0 0.0
2014-Aug-14 07:33N 37°56' E 023°38'0 0.0
2014-Aug-14 06:33N 37°56' E 023°38'0 0.0
2014-Aug-14 05:33N 37°56' E 023°38'1 1.0
2014-Aug-14 04:34N 37°56' E 023°36'1918.7
2014-Aug-14 03:33N 37°39' E 023°47'2222.1
2014-Aug-14 02:34N 37°25' E 024°08'2221.5
2014-Aug-14 01:33N 37°14' E 024°31'2222.2
2014-Aug-14 00:33N 36°58' E 024°52'2222.1
2014-Aug-13 23:34N 36°44' E 025°12'2221.7
2014-Aug-13 22:33N 36°24' E 025°25'3 3.1
2014-Aug-13 21:33N 36°27' E 025°22'1919.3
2014-Aug-13 20:33N 36°36' E 025°44'2222.3
2014-Aug-13 19:33N 36°42' E 026°10'2221.9
2014-Aug-13 18:33N 36°48' E 026°37'2222.0
2014-Aug-13 17:33N 36°54' E 027°03'21 9.1
2014-Aug-13 15:13N 36°40' E 027°23'1521.4
2014-Aug-13 14:31N 36°34' E 027°40'9 1.0
2014-Aug-13 05:28N 36°31' E 027°51'2325.2
2014-Aug-13 04:34N 36°39' E 027°25'19 9.3
2014-Aug-13 02:32N 36°55' E 027°12'4924.4
2014-Aug-13 00:32N 36°43' E 026°13'2424.1
2014-Aug-12 23:34N 36°36' E 025°45'2020.2
2014-Aug-12 22:33N 36°26' E 025°23'3 3.5
2014-Aug-12 21:33N 36°23' E 025°25'2120.7
2014-Aug-12 20:33N 36°32' E 025°01'2121.0
2014-Aug-12 19:33N 36°46' E 024°42'2221.5
2014-Aug-12 18:33N 37°02' E 024°24'4321.4
2014-Aug-12 16:32N 37°34' E 023°48'2121.1
2014-Aug-12 15:33N 37°53' E 023°38'3 3.3
2014-Aug-12 14:33N 37°56' E 023°38'0 0.0
2014-Aug-12 13:33N 37°56' E 023°38'0 0.0
2014-Aug-12 12:33N 37°56' E 023°38'0 0.0
2014-Aug-12 10:33N 37°56' E 023°38'0 0.0
2014-Aug-12 09:33N 37°56' E 023°38'0 0.0
2014-Aug-12 08:33N 37°56' E 023°38'0 0.0
2014-Aug-12 07:30N 37°56' E 023°38'0 0.0
2014-Aug-12 06:33N 37°56' E 023°38'0 0.0
2014-Aug-12 05:33N 37°56' E 023°38'1 1.4
2014-Aug-12 04:33N 37°55' E 023°37'  

Dump ship's entire track history